Time;durP1;ratioP1;P1;durP2;ratioP2;P2;SDS_P1;SDS_P2;PMS_P1;PMS_P2;Temp;Humidity;BMP_temperature;BMP_pressure;BME280_temperature;BME280_humidity;BME280_pressure;Samples;Min_cycle;Max_cycle;Signal;HPM_P1;HPM_P2
2022/12/29 00:01:37;;;;;;;1.65;0.98;;;10.70;99.90;;;;;;5051754;28;20226;-44
2022/12/29 00:04:13;;;;;;;1.05;0.85;;;10.70;99.90;;;;;;5052229;28;20201;-44
2022/12/29 00:06:38;;;;;;;2.65;1.42;;;10.70;99.90;;;;;;5052091;28;20166;-44
2022/12/29 00:09:04;;;;;;;1.33;1.00;;;10.80;99.90;;;;;;5052103;28;20166;-44
2022/12/29 00:11:30;;;;;;;1.27;1.10;;;10.70;99.90;;;;;;5052023;28;20249;-44
2022/12/29 00:16:43;;;;;;;3.92;2.13;;;10.80;99.90;;;;;;5052252;28;20161;-45
2022/12/29 00:35:07;;;;;;;2.20;1.48;;;10.80;99.90;;;;;;5051978;28;20634;-45
2022/12/29 00:36:26;;;;;;;4.60;2.28;;;11.10;99.90;;;;;;5051969;28;20669;-44
2022/12/29 00:44:23;;;;;;;2.67;1.70;;;11.40;99.90;;;;;;5051656;28;20174;-45
2022/12/29 00:46:49;;;;;;;3.40;1.33;;;11.40;99.90;;;;;;5051447;28;20171;-44
2022/12/29 00:49:31;;;;;;;0.70;0.70;;;11.50;99.90;;;;;;5051504;28;20159;-44
2022/12/29 00:52:06;;;;;;;2.00;1.50;;;11.50;99.90;;;;;;5051423;28;20166;-44
2022/12/29 00:54:35;;;;;;;5.75;1.75;;;11.50;99.90;;;;;;5051404;28;20370;-44
2022/12/29 00:57:07;;;;;;;1.83;1.00;;;11.60;99.90;;;;;;5051409;28;20190;-44
2022/12/29 00:59:35;;;;;;;0.77;0.55;;;11.60;99.90;;;;;;5049853;28;20206;-44
2022/12/29 01:02:01;;;;;;;0.40;0.40;;;11.50;99.90;;;;;;5049837;28;20222;-44
2022/12/29 01:04:27;;;;;;;1.25;0.40;;;11.40;99.90;;;;;;5051286;28;20175;-44
2022/12/29 01:06:53;;;;;;;0.60;0.60;;;11.30;99.90;;;;;;5051716;28;20213;-44
2022/12/29 01:12:06;;;;;;;0.10;0.10;;;11.20;99.90;;;;;;5053126;28;20246;-48
2022/12/29 01:14:32;;;;;;;2.38;0.70;;;11.40;99.90;;;;;;5055091;28;20163;-44
2022/12/29 01:16:58;;;;;;;0.25;0.25;;;11.50;99.90;;;;;;5055378;28;20178;-44
2022/12/29 01:19:24;;;;;;;0.10;0.10;;;11.50;99.90;;;;;;5054524;28;20171;-45
2022/12/29 01:21:49;;;;;;;0.20;0.20;;;11.50;99.90;;;;;;5054200;28;20285;-45
2022/12/29 01:24:16;;;;;;;0.28;0.28;;;11.50;99.90;;;;;;5055368;28;20304;-45
2022/12/29 01:26:42;;;;;;;1.25;0.22;;;11.60;99.90;;;;;;5055552;28;20258;-45
2022/12/29 01:29:07;;;;;;;0.98;0.30;;;11.60;99.90;;;;;;5055187;28;20733;-45
2022/12/29 01:31:33;;;;;;;0.32;0.32;;;11.70;99.90;;;;;;5055180;28;20536;-45
2022/12/29 01:33:59;;;;;;;0.57;0.52;;;11.70;99.90;;;;;;5055459;28;20167;-45
2022/12/29 01:36:25;;;;;;;0.20;0.20;;;11.70;99.90;;;;;;5055229;28;20167;-44
2022/12/29 01:38:50;;;;;;;0.32;0.32;;;11.70;99.90;;;;;;5055664;28;20261;-46
2022/12/29 01:41:16;;;;;;;0.35;0.35;;;11.70;99.90;;;;;;5054912;28;20245;-45
2022/12/29 01:43:53;;;;;;;0.68;0.68;;;11.60;99.90;;;;;;5054963;28;20579;-45
2022/12/29 01:46:40;;;;;;;0.55;0.50;;;11.70;99.90;;;;;;5054536;28;20159;-45
2022/12/29 01:49:16;;;;;;;1.92;0.68;;;11.70;99.90;;;;;;5054931;28;20213;-45
2022/12/29 01:51:53;;;;;;;1.20;0.57;;;11.80;99.90;;;;;;5055056;28;20166;-45
2022/12/29 01:54:38;;;;;;;0.47;0.47;;;11.80;99.90;;;;;;5054796;28;20204;-44
2022/12/29 01:57:07;;;;;;;0.40;0.40;;;12.20;99.90;;;;;;5053476;28;20179;-45
2022/12/29 01:59:37;;;;;;;1.25;0.77;;;11.70;99.90;;;;;;5054748;28;20186;-45
2022/12/29 02:02:04;;;;;;;1.17;0.80;;;11.70;99.90;;;;;;5054289;28;20226;-45
2022/12/29 02:04:32;;;;;;;0.95;0.90;;;11.70;99.90;;;;;;5053346;28;20650;-45
2022/12/29 02:07:05;;;;;;;1.50;1.00;;;11.70;99.90;;;;;;5054823;28;20181;-45
2022/12/29 02:09:31;;;;;;;1.67;0.90;;;11.60;99.90;;;;;;5054573;28;20783;-44
2022/12/29 02:11:57;;;;;;;1.08;0.80;;;11.60;99.90;;;;;;5054461;28;20210;-45
2022/12/29 02:14:23;;;;;;;1.13;0.60;;;11.60;99.90;;;;;;5054735;28;20163;-44
2022/12/29 02:17:17;;;;;;;1.92;0.68;;;11.60;99.90;;;;;;5054346;28;20224;-44
2022/12/29 02:20:27;;;;;;;1.30;0.73;;;11.60;99.90;;;;;;5054288;28;20173;-45
2022/12/29 02:23:19;;;;;;;1.10;0.68;;;11.70;99.90;;;;;;5054315;28;20266;-45
2022/12/29 02:26:02;;;;;;;1.25;0.77;;;11.80;99.90;;;;;;5054227;28;20167;-45
2022/12/29 02:28:47;;;;;;;1.70;0.98;;;11.70;99.90;;;;;;5054134;28;20163;-44
2022/12/29 02:31:21;;;;;;;0.45;0.45;;;11.80;99.90;;;;;;5054050;28;20175;-44
2022/12/29 02:34:29;;;;;;;1.48;0.75;;;11.90;99.90;;;;;;5054025;28;20162;-45
2022/12/29 02:37:14;;;;;;;0.60;0.50;;;11.80;99.90;;;;;;5032012;28;20632;-44
2022/12/29 02:40:10;;;;;;;2.45;0.80;;;11.90;99.90;;;;;;5049758;28;20638;-45
2022/12/29 02:43:07;;;;;;;2.00;0.80;;;11.90;99.90;;;;;;5054034;28;20221;-45
2022/12/29 02:45:53;;;;;;;0.50;0.50;;;11.90;99.90;;;;;;5053883;28;20215;-45
2022/12/29 02:48:45;;;;;;;1.45;0.65;;;12.00;99.90;;;;;;5052576;28;20224;-45
2022/12/29 02:51:32;;;;;;;2.35;0.80;;;12.00;99.90;;;;;;5050641;28;20179;-45
2022/12/29 02:56:42;;;;;;;1.52;0.73;;;12.00;99.90;;;;;;5053626;28;20545;-45
2022/12/29 02:59:09;;;;;;;0.73;0.73;;;12.00;99.90;;;;;;5053642;28;20163;-44
2022/12/29 03:05:02;;;;;;;0.70;0.50;;;11.90;99.90;;;;;;5053579;28;20236;-45
2022/12/29 03:07:31;;;;;;;0.43;0.40;;;12.00;99.90;;;;;;5053385;28;20170;-45
2022/12/29 03:10:28;;;;;;;1.58;0.80;;;12.00;99.90;;;;;;5052118;28;20198;-45
2022/12/29 03:16:05;;;;;;;3.00;0.80;;;12.00;99.90;;;;;;5053646;28;20656;-45
2022/12/29 03:18:49;;;;;;;1.40;0.95;;;11.90;99.90;;;;;;5053431;28;20178;-45
2022/12/29 03:21:19;;;;;;;2.95;0.75;;;11.90;99.90;;;;;;5053026;28;20236;-45
2022/12/29 03:23:48;;;;;;;0.40;0.40;;;12.00;99.90;;;;;;5053252;28;20258;-44
2022/12/29 03:26:18;;;;;;;1.88;0.65;;;11.90;99.90;;;;;;5053078;28;20167;-44
2022/12/29 03:28:48;;;;;;;3.60;0.50;;;12.00;99.90;;;;;;5053144;28;20536;-44
2022/12/29 03:31:15;;;;;;;2.30;0.60;;;11.90;99.90;;;;;;5052973;28;20162;-44
2022/12/29 03:33:42;;;;;;;1.73;0.40;;;11.90;99.90;;;;;;5052266;28;20175;-44
2022/12/29 03:36:16;;;;;;;0.90;0.38;;;11.90;99.90;;;;;;5052613;28;20240;-44
2022/12/29 03:39:08;;;;;;;4.72;0.60;;;12.00;99.90;;;;;;5052788;28;20755;-45
2022/12/29 03:41:35;;;;;;;1.10;0.40;;;12.00;99.90;;;;;;5052774;28;20781;-44
2022/12/29 03:44:01;;;;;;;2.85;0.80;;;12.00;99.90;;;;;;5052788;28;20233;-44
2022/12/29 03:46:26;;;;;;;1.75;0.82;;;11.90;99.90;;;;;;5052704;28;20622;-44
2022/12/29 03:48:52;;;;;;;1.05;0.68;;;12.00;99.90;;;;;;5051655;28;20177;-44
2022/12/29 03:51:17;;;;;;;1.25;0.90;;;12.00;99.90;;;;;;5052457;28;20262;-44
2022/12/29 03:53:43;;;;;;;2.13;1.17;;;12.00;99.90;;;;;;5052594;28;20217;-45
2022/12/29 03:56:08;;;;;;;0.80;0.45;;;12.10;99.90;;;;;;5052385;28;20170;-45
2022/12/29 03:58:34;;;;;;;1.55;0.40;;;12.10;99.90;;;;;;5052458;28;20155;-45
2022/12/29 04:01:00;;;;;;;2.22;0.98;;;12.00;99.90;;;;;;5052247;28;20587;-45
2022/12/29 04:03:25;;;;;;;2.42;0.52;;;12.00;99.90;;;;;;5052206;28;20222;-44
2022/12/29 04:05:51;;;;;;;1.70;0.63;;;12.00;99.90;;;;;;5052657;28;20162;-45
2022/12/29 04:08:16;;;;;;;3.25;0.90;;;12.00;99.90;;;;;;5052199;28;20175;-45
2022/12/29 04:10:42;;;;;;;1.02;0.70;;;12.00;99.90;;;;;;5052136;28;20167;-45
2022/12/29 04:13:07;;;;;;;0.43;0.43;;;12.00;99.90;;;;;;5050892;28;20592;-45
2022/12/29 04:15:33;;;;;;;0.32;0.32;;;12.00;99.90;;;;;;5052061;28;20170;-44
2022/12/29 04:17:59;;;;;;;1.27;1.00;;;12.00;99.90;;;;;;5051993;28;20171;-44
2022/12/29 04:23:08;;;;;;;1.00;0.90;;;11.90;99.90;;;;;;5051951;28;20205;-45
2022/12/29 04:25:34;;;;;;;0.47;0.47;;;11.80;99.90;;;;;;5051881;28;20249;-44
2022/12/29 04:28:00;;;;;;;1.20;0.40;;;12.00;99.90;;;;;;5051937;28;20167;-44
2022/12/29 04:30:26;;;;;;;1.58;0.45;;;12.00;99.90;;;;;;5050616;28;20174;-44
2022/12/29 04:32:51;;;;;;;3.15;0.80;;;12.10;99.90;;;;;;5052306;28;20163;-44
2022/12/29 04:35:17;;;;;;;1.20;0.90;;;12.10;99.90;;;;;;5051753;28;20186;-45
2022/12/29 04:37:42;;;;;;;0.73;0.47;;;12.10;99.90;;;;;;5051820;28;20170;-45
2022/12/29 04:40:09;;;;;;;1.95;0.80;;;12.10;99.90;;;;;;5051747;28;20590;-45
2022/12/29 04:42:34;;;;;;;0.73;0.73;;;12.10;99.90;;;;;;5051906;28;20214;-45
2022/12/29 04:45:00;;;;;;;1.40;0.57;;;12.10;99.90;;;;;;5051591;28;20688;-45
2022/12/29 04:47:25;;;;;;;0.47;0.47;;;12.10;99.90;;;;;;5051717;28;20216;-45
2022/12/29 04:49:51;;;;;;;3.00;0.88;;;12.20;99.90;;;;;;5052036;28;20538;-45
2022/12/29 04:52:16;;;;;;;0.90;0.80;;;12.20;99.90;;;;;;5050493;28;20601;-45
2022/12/29 04:54:42;;;;;;;5.43;0.70;;;12.10;99.90;;;;;;5051680;28;20509;-45
2022/12/29 04:57:08;;;;;;;1.95;0.80;;;12.10;99.90;;;;;;5051558;28;20525;-44
2022/12/29 04:59:33;;;;;;;0.80;0.80;;;12.10;99.90;;;;;;5051870;28;20166;-45
2022/12/29 05:01:59;;;;;;;0.88;0.85;;;12.10;99.90;;;;;;5051316;28;20222;-45
2022/12/29 05:04:24;;;;;;;0.30;0.30;;;12.10;99.90;;;;;;5051319;28;20165;-45
2022/12/29 05:06:50;;;;;;;1.45;0.65;;;12.10;99.90;;;;;;5051816;28;20167;-45
2022/12/29 05:09:15;;;;;;;1.98;1.15;;;12.10;99.90;;;;;;5051449;28;20159;-45
2022/12/29 05:11:41;;;;;;;2.22;0.85;;;12.00;99.90;;;;;;5051251;28;20216;-44
2022/12/29 05:14:06;;;;;;;3.03;0.90;;;12.00;99.90;;;;;;5051032;28;20170;-45
2022/12/29 05:16:32;;;;;;;0.85;0.70;;;12.10;99.90;;;;;;5051485;28;20174;-45
2022/12/29 05:18:58;;;;;;;1.42;0.77;;;12.10;99.90;;;;;;5050225;28;20222;-44
2022/12/29 05:21:23;;;;;;;4.68;1.05;;;12.10;99.90;;;;;;5051124;28;20202;-44
2022/12/29 05:23:49;;;;;;;5.88;0.88;;;12.10;99.90;;;;;;5051678;28;20700;-44
2022/12/29 05:26:14;;;;;;;3.85;0.98;;;12.10;99.90;;;;;;5051355;28;20700;-45
2022/12/29 05:28:40;;;;;;;0.35;0.35;;;12.10;99.90;;;;;;5051245;28;20631;-45
2022/12/29 05:31:05;;;;;;;3.13;1.02;;;12.20;99.90;;;;;;5051328;28;20162;-45
2022/12/29 05:33:31;;;;;;;2.53;0.63;;;12.10;99.90;;;;;;5051326;28;20575;-44
2022/12/29 05:35:56;;;;;;;0.40;0.40;;;12.10;99.90;;;;;;5051300;28;20221;-44
2022/12/29 05:38:22;;;;;;;1.15;0.47;;;12.10;99.90;;;;;;5051630;28;20170;-45
2022/12/29 05:40:47;;;;;;;3.08;0.75;;;12.00;99.90;;;;;;5049966;28;20634;-44
2022/12/29 05:43:13;;;;;;;1.20;0.73;;;12.00;99.90;;;;;;5051045;28;20234;-44
2022/12/29 05:45:38;;;;;;;2.70;0.73;;;12.00;99.90;;;;;;5051139;28;20194;-45
2022/12/29 05:48:04;;;;;;;1.40;0.32;;;12.00;99.90;;;;;;5051061;28;20191;-44
2022/12/29 05:50:30;;;;;;;0.73;0.73;;;12.00;99.90;;;;;;5050785;28;20180;-44
2022/12/29 05:52:55;;;;;;;2.38;1.08;;;14.70;99.90;;;;;;5051109;28;20170;-44
2022/12/29 05:55:21;;;;;;;5.10;0.80;;;12.00;99.90;;;;;;5051385;28;20177;-45
2022/12/29 05:57:46;;;;;;;1.67;0.60;;;11.90;99.90;;;;;;5052352;28;20268;-44
2022/12/29 06:00:12;;;;;;;1.67;0.68;;;11.90;99.90;;;;;;5054886;28;20218;-45
2022/12/29 06:02:38;;;;;;;0.75;0.32;;;11.90;99.90;;;;;;5054514;28;20313;-45
2022/12/29 06:05:04;;;;;;;0.85;0.50;;;11.90;99.90;;;;;;5054796;28;20267;-45
2022/12/29 06:07:29;;;;;;;0.80;0.75;;;11.90;99.90;;;;;;5054807;28;20170;-44
2022/12/29 06:09:55;;;;;;;3.75;0.57;;;11.90;99.90;;;;;;5054534;28;20167;-45
2022/12/29 06:12:20;;;;;;;1.20;0.70;;;11.90;99.90;;;;;;5053575;28;20261;-45
2022/12/29 06:14:46;;;;;;;3.88;1.08;;;11.90;99.90;;;;;;5054700;28;20221;-45
2022/12/29 06:17:11;;;;;;;2.53;1.30;;;11.80;99.90;;;;;;5054401;28;20654;-45
2022/12/29 06:19:37;;;;;;;0.60;0.60;;;11.80;99.90;;;;;;5054400;28;20710;-45
2022/12/29 06:22:02;;;;;;;1.20;0.80;;;11.70;99.90;;;;;;5054132;28;20289;-45
2022/12/29 06:24:28;;;;;;;9.88;1.30;;;11.80;99.90;;;;;;5054299;28;20544;-45
2022/12/29 06:26:54;;;;;;;1.90;0.63;;;11.80;99.90;;;;;;5054217;28;20170;-45
2022/12/29 06:29:20;;;;;;;2.78;0.65;;;11.70;99.90;;;;;;5054506;28;20245;-45
2022/12/29 06:31:46;;;;;;;0.40;0.40;;;11.70;99.90;;;;;;5054425;28;20174;-45
2022/12/29 06:34:12;;;;;;;1.33;0.80;;;11.70;99.90;;;;;;5054311;28;20167;-45
2022/12/29 06:36:38;;;;;;;4.68;1.08;;;11.70;99.90;;;;;;5054087;28;20163;-45
2022/12/29 06:39:04;;;;;;;2.45;0.90;;;11.60;99.90;;;;;;5052629;28;20638;-44
2022/12/29 06:41:30;;;;;;;2.53;0.80;;;11.70;99.90;;;;;;5053803;28;20228;-45
2022/12/29 06:43:55;;;;;;;2.50;0.70;;;11.70;99.90;;;;;;5054018;28;20166;-44
2022/12/29 06:46:21;;;;;;;1.52;0.57;;;11.60;99.90;;;;;;5054099;28;20159;-45
2022/12/29 06:48:46;;;;;;;0.88;0.32;;;11.60;99.90;;;;;;5053465;28;20242;-45
2022/12/29 06:51:12;;;;;;;4.03;0.93;;;11.70;99.90;;;;;;5053599;28;21108;-45
2022/12/29 06:53:38;;;;;;;1.00;0.70;;;11.70;99.90;;;;;;5053481;28;20171;-45
2022/12/29 06:56:04;;;;;;;9.00;1.00;;;11.70;99.90;;;;;;5053681;28;20174;-45
2022/12/29 06:58:29;;;;;;;3.97;0.98;;;11.70;99.90;;;;;;5053598;28;20163;-44
2022/12/29 07:00:55;;;;;;;1.73;0.70;;;11.60;99.90;;;;;;5053354;28;20225;-45
2022/12/29 07:03:20;;;;;;;3.92;0.77;;;11.60;99.90;;;;;;5053421;28;20218;-45
2022/12/29 07:05:46;;;;;;;0.88;0.50;;;11.60;99.90;;;;;;5053486;28;20173;-45
2022/12/29 07:08:11;;;;;;;2.20;0.95;;;11.60;99.90;;;;;;5051782;28;20220;-44
2022/12/29 07:10:37;;;;;;;2.40;1.08;;;11.60;99.90;;;;;;5052433;28;20163;-44
2022/12/29 07:13:02;;;;;;;2.08;0.63;;;11.60;99.90;;;;;;5053319;28;20595;-45
2022/12/29 07:15:28;;;;;;;3.58;0.75;;;11.60;99.90;;;;;;5053247;28;20588;-44
2022/12/29 07:17:53;;;;;;;2.90;0.82;;;11.60;99.90;;;;;;5051937;28;20244;-45
2022/12/29 07:20:19;;;;;;;2.75;0.70;;;11.60;99.90;;;;;;5052445;28;20163;-45
2022/12/29 07:22:45;;;;;;;1.75;0.95;;;11.60;99.90;;;;;;5052874;28;20210;-44
2022/12/29 07:25:10;;;;;;;0.45;0.40;;;11.60;99.90;;;;;;5053063;28;20167;-52
2022/12/29 07:27:36;;;;;;;1.40;0.65;;;11.60;99.90;;;;;;5053208;28;20227;-45
2022/12/29 07:30:01;;;;;;;3.88;0.90;;;11.60;99.90;;;;;;5053002;28;20193;-45
2022/12/29 07:32:27;;;;;;;1.33;0.68;;;11.50;99.90;;;;;;5053193;28;20170;-45
2022/12/29 07:34:52;;;;;;;4.57;0.85;;;11.50;99.90;;;;;;5053044;28;20171;-45
2022/12/29 07:37:18;;;;;;;1.85;0.80;;;11.50;99.90;;;;;;5053337;28;20170;-45
2022/12/29 07:39:43;;;;;;;3.90;0.93;;;11.50;99.90;;;;;;5053120;28;20221;-45
2022/12/29 07:42:09;;;;;;;1.88;1.00;;;11.50;99.90;;;;;;5052698;28;20202;-45
2022/12/29 07:44:36;;;;;;;4.30;1.00;;;11.50;99.90;;;;;;5052712;28;20261;-44
2022/12/29 07:47:02;;;;;;;1.73;0.90;;;11.50;99.90;;;;;;5052826;28;20174;-44
2022/12/29 07:49:27;;;;;;;2.25;0.90;;;11.50;99.90;;;;;;5052715;28;20159;-44
2022/12/29 07:51:53;;;;;;;2.70;0.82;;;11.50;99.90;;;;;;5052595;28;20177;-44
2022/12/29 07:54:18;;;;;;;2.00;0.70;;;11.50;99.90;;;;;;5052926;28;20170;-44
2022/12/29 07:56:44;;;;;;;1.23;1.13;;;11.40;99.90;;;;;;5052124;28;20186;-44
2022/12/29 07:59:11;;;;;;;2.22;0.88;;;11.40;99.90;;;;;;5052046;28;20174;-44
2022/12/29 08:01:37;;;;;;;4.40;1.25;;;11.30;99.90;;;;;;5052409;28;20226;-45
2022/12/29 08:04:03;;;;;;;7.20;1.10;;;11.30;99.90;;;;;;5052405;28;20643;-44
2022/12/29 08:06:30;;;;;;;1.35;0.85;;;11.30;99.90;;;;;;5052331;28;20166;-44
2022/12/29 08:08:56;;;;;;;2.83;0.98;;;11.30;99.90;;;;;;5052176;28;20649;-44
2022/12/29 08:11:22;;;;;;;2.90;0.90;;;11.30;99.90;;;;;;5052620;28;20181;-44
2022/12/29 08:13:48;;;;;;;2.28;1.08;;;11.30;99.90;;;;;;5052451;28;20170;-44
2022/12/29 08:16:13;;;;;;;2.92;0.98;;;11.30;99.90;;;;;;5052200;28;20159;-44
2022/12/29 08:18:39;;;;;;;4.13;1.38;;;11.30;99.90;;;;;;5051790;28;20220;-44
2022/12/29 08:21:05;;;;;;;5.38;1.50;;;11.30;99.90;;;;;;5051293;28;20174;-45
2022/12/29 08:23:31;;;;;;;5.78;1.42;;;11.30;99.90;;;;;;5052122;28;20174;-45
2022/12/29 08:25:59;;;;;;;2.65;1.17;;;11.30;99.90;;;;;;5050650;28;20180;-45
2022/12/29 08:28:24;;;;;;;1.20;1.10;;;11.30;99.90;;;;;;5051909;28;20164;-45
2022/12/29 08:30:50;;;;;;;8.57;1.33;;;11.30;99.90;;;;;;5052200;28;20212;-45
2022/12/29 08:33:15;;;;;;;2.58;0.93;;;11.30;99.90;;;;;;5051656;28;20650;-45
2022/12/29 08:35:41;;;;;;;8.00;1.05;;;11.30;99.90;;;;;;5051851;28;20167;-45
2022/12/29 08:38:06;;;;;;;1.98;0.90;;;11.20;99.90;;;;;;5051784;28;20174;-45
2022/12/29 08:40:32;;;;;;;4.00;1.35;;;11.30;99.90;;;;;;5051656;28;20245;-45
2022/12/29 08:42:57;;;;;;;3.03;1.08;;;11.30;99.90;;;;;;5051953;28;20217;-46
2022/12/29 08:45:23;;;;;;;2.70;0.88;;;11.30;99.90;;;;;;5052075;28;20171;-45
2022/12/29 08:47:48;;;;;;;4.10;1.30;;;11.30;99.90;;;;;;5051992;28;20812;-44
2022/12/29 08:50:14;;;;;;;4.60;1.23;;;11.30;99.90;;;;;;5051637;28;20521;-44
2022/12/29 08:52:40;;;;;;;6.90;1.33;;;11.30;99.90;;;;;;5051898;28;20171;-44
2022/12/29 08:55:05;;;;;;;2.95;1.10;;;11.30;99.90;;;;;;5051805;28;20181;-45
2022/12/29 08:57:31;;;;;;;5.00;1.20;;;11.30;99.90;;;;;;5051666;28;20173;-45
2022/12/29 08:59:56;;;;;;;1.15;0.60;;;11.40;99.90;;;;;;5051528;28;20170;-45
2022/12/29 09:02:22;;;;;;;7.03;1.40;;;11.40;99.90;;;;;;5051801;28;20230;-45
2022/12/29 09:04:47;;;;;;;3.13;1.00;;;11.40;99.90;;;;;;5051154;28;20200;-45
2022/12/29 09:07:13;;;;;;;3.55;1.13;;;11.40;99.90;;;;;;5051330;28;20174;-45
2022/12/29 09:09:38;;;;;;;4.45;1.40;;;11.40;99.90;;;;;;5051242;28;20254;-45
2022/12/29 09:12:05;;;;;;;3.33;1.13;;;11.40;99.90;;;;;;5051183;28;20174;-45
2022/12/29 09:14:30;;;;;;;3.00;0.70;;;11.40;99.90;;;;;;5051172;28;20181;-45
2022/12/29 09:19:40;;;;;;;6.65;1.13;;;11.50;99.90;;;;;;5050937;28;20169;-45
2022/12/29 09:22:06;;;;;;;7.28;1.38;;;11.60;99.90;;;;;;5051097;28;20293;-45
2022/12/29 09:24:31;;;;;;;5.63;2.08;;;11.70;99.90;;;;;;5051254;28;20216;-44
2022/12/29 09:26:57;;;;;;;4.32;1.58;;;11.80;99.90;;;;;;5051200;28;20623;-44
2022/12/29 09:29:23;;;;;;;5.25;1.40;;;11.70;99.90;;;;;;5051097;28;20213;-45
2022/12/29 09:31:48;;;;;;;6.78;1.73;;;11.70;99.90;;;;;;5051409;28;20661;-44
2022/12/29 09:34:14;;;;;;;4.32;0.90;;;11.70;99.90;;;;;;5054426;28;20167;-45
2022/12/29 09:36:40;;;;;;;5.18;1.25;;;11.70;99.90;;;;;;5054937;28;20185;-45
2022/12/29 09:39:06;;;;;;;1.30;0.80;;;11.60;99.90;;;;;;5055142;28;20530;-45
2022/12/29 09:41:57;;;;;;;3.78;1.77;;;11.60;99.90;;;;;;5054863;28;20190;-45
2022/12/29 09:44:56;;;;;;;4.15;1.15;;;11.50;99.90;;;;;;5054840;28;20244;-45
2022/12/29 09:47:23;;;;;;;2.75;1.42;;;11.60;99.90;;;;;;5053524;28;20551;-45
2022/12/29 09:50:29;;;;;;;4.72;2.08;;;11.60;99.90;;;;;;5055367;28;20611;-45
2022/12/29 09:53:09;;;;;;;4.88;1.23;;;11.70;99.90;;;;;;5042586;28;20186;-45
2022/12/29 09:55:37;;;;;;;5.95;1.90;;;11.60;99.90;;;;;;5054603;28;20174;-45
2022/12/29 09:58:13;;;;;;;5.18;1.20;;;11.60;99.90;;;;;;5054614;28;20167;-45
2022/12/29 10:01:00;;;;;;;5.95;1.50;;;11.60;99.90;;;;;;5054490;28;20174;-45
2022/12/29 10:03:40;;;;;;;7.75;1.38;;;11.60;99.90;;;;;;5053989;28;20218;-45
2022/12/29 10:06:22;;;;;;;8.02;1.63;;;11.60;99.90;;;;;;5054354;28;20208;-45
2022/12/29 10:08:53;;;;;;;7.57;1.67;;;11.60;99.90;;;;;;5054687;28;20162;-45
2022/12/29 10:11:47;;;;;;;3.33;1.08;;;11.60;99.90;;;;;;5054622;28;20178;-45
2022/12/29 10:14:32;;;;;;;1.75;1.20;;;11.60;99.90;;;;;;5054253;28;20177;-45
2022/12/29 10:17:08;;;;;;;2.58;1.02;;;11.70;99.90;;;;;;5053542;28;20665;-45
2022/12/29 10:19:36;;;;;;;4.60;1.38;;;11.60;99.90;;;;;;5054090;28;20182;-45
2022/12/29 10:22:27;;;;;;;12.00;1.70;;;11.60;99.90;;;;;;5052759;28;20543;-44
2022/12/29 10:24:54;;;;;;;5.40;1.60;;;11.60;99.90;;;;;;5053983;28;20634;-44
2022/12/29 10:27:20;;;;;;;4.30;1.52;;;11.70;99.90;;;;;;5054412;28;20175;-44
2022/12/29 10:29:54;;;;;;;6.88;1.77;;;11.70;99.90;;;;;;5053824;28;20526;-45
2022/12/29 10:32:29;;;;;;;8.18;0.95;;;11.60;99.90;;;;;;5054033;28;20223;-45
2022/12/29 10:35:00;;;;;;;3.30;1.30;;;11.70;99.90;;;;;;5053768;28;20317;-45
2022/12/29 10:37:39;;;;;;;2.95;1.50;;;11.70;99.90;;;;;;5053774;28;20642;-45
2022/12/29 10:40:21;;;;;;;7.85;1.70;;;11.80;99.90;;;;;;5053604;28;20537;-45
2022/12/29 10:42:52;;;;;;;5.72;1.92;;;11.70;99.90;;;;;;5053612;28;20198;-45
2022/12/29 10:45:20;;;;;;;5.28;1.08;;;11.70;99.90;;;;;;5053506;28;20173;-44
2022/12/29 10:48:09;;;;;;;5.60;1.70;;;11.70;99.90;;;;;;5053440;28;20189;-45
2022/12/29 10:50:42;;;;;;;3.13;0.77;;;12.00;99.90;;;;;;5053476;28;20163;-45
2022/12/29 10:53:12;;;;;;;2.53;1.20;;;12.00;99.90;;;;;;5053416;28;20198;-45
2022/12/29 10:55:41;;;;;;;2.25;1.05;;;12.00;99.90;;;;;;5053692;28;20175;-45
2022/12/29 10:58:11;;;;;;;1.85;0.90;;;12.00;99.90;;;;;;5053213;28;20170;-45
2022/12/29 11:00:37;;;;;;;5.00;1.48;;;12.10;99.90;;;;;;5053037;28;20726;-45
2022/12/29 11:03:09;;;;;;;3.05;0.98;;;12.10;99.90;;;;;;5053000;28;20305;-45
2022/12/29 11:05:41;;;;;;;7.97;2.13;;;12.10;99.90;;;;;;5053579;28;20567;-45
2022/12/29 11:08:16;;;;;;;8.05;2.72;;;12.10;99.90;;;;;;5053467;28;20584;-45
2022/12/29 11:10:43;;;;;;;3.80;1.27;;;12.20;99.90;;;;;;5053497;28;20743;-45
2022/12/29 11:13:18;;;;;;;7.78;3.47;;;12.20;99.90;;;;;;5053053;28;20520;-45
2022/12/29 11:15:49;;;;;;;6.03;1.52;;;12.40;99.90;;;;;;5052814;28;20243;-45
2022/12/29 11:18:39;;;;;;;5.93;1.60;;;12.40;99.90;;;;;;5052668;28;20212;-45
2022/12/29 11:21:24;;;;;;;3.85;1.05;;;12.40;99.90;;;;;;5052828;28;20327;-44
2022/12/29 11:23:59;;;;;;;4.18;1.02;;;12.40;99.90;;;;;;5052271;28;20170;-44
2022/12/29 11:26:26;;;;;;;6.05;1.65;;;12.30;99.90;;;;;;5052976;28;20170;-44
2022/12/29 11:29:28;;;;;;;4.93;1.73;;;12.30;99.90;;;;;;5052944;28;20261;-43
2022/12/29 11:31:58;;;;;;;4.63;1.63;;;12.20;99.90;;;;;;5041194;28;20244;-44
2022/12/29 11:34:33;;;;;;;3.67;1.35;;;12.90;99.90;;;;;;5052721;28;20212;-44
2022/12/29 11:37:11;;;;;;;4.45;1.60;;;12.10;99.90;;;;;;5052494;28;20172;-44
2022/12/29 11:39:50;;;;;;;5.35;1.13;;;12.10;99.90;;;;;;5052768;28;20245;-44
2022/12/29 11:42:20;;;;;;;2.88;1.33;;;12.10;99.90;;;;;;5052385;28;20206;-44
2022/12/29 11:44:50;;;;;;;7.50;1.95;;;12.00;99.90;;;;;;5052302;28;20177;-44
2022/12/29 11:47:27;;;;;;;8.88;1.85;;;11.90;99.90;;;;;;5052383;28;20158;-45
2022/12/29 11:49:57;;;;;;;3.42;1.23;;;11.90;99.90;;;;;;5052435;28;20573;-44
2022/12/29 11:52:28;;;;;;;7.30;1.65;;;11.90;99.90;;;;;;5052288;28;20166;-45
2022/12/29 11:54:56;;;;;;;5.47;1.65;;;11.90;99.90;;;;;;5051691;28;20174;-44
2022/12/29 11:57:22;;;;;;;5.85;1.65;;;11.80;99.90;;;;;;5052813;28;20178;-44
2022/12/29 12:00:01;;;;;;;3.17;1.40;;;11.80;99.90;;;;;;5052255;28;20173;-44
2022/12/29 12:02:36;;;;;;;6.95;1.67;;;11.80;99.90;;;;;;5051879;28;20222;-44
2022/12/29 12:05:13;;;;;;;7.15;2.40;;;11.80;99.90;;;;;;5051793;28;20167;-44
2022/12/29 12:07:49;;;;;;;5.88;1.00;;;11.80;99.90;;;;;;5052115;28;20201;-44
2022/12/29 12:10:24;;;;;;;5.47;1.65;;;11.80;99.90;;;;;;5051969;28;20166;-44
2022/12/29 12:13:19;;;;;;;1.13;0.80;;;11.80;99.90;;;;;;5052039;28;20288;-44
2022/12/29 12:15:52;;;;;;;7.82;1.77;;;11.80;99.90;;;;;;5051964;28;20171;-44
2022/12/29 12:18:45;;;;;;;7.07;1.50;;;11.70;99.90;;;;;;5052227;28;20163;-44
2022/12/29 12:21:26;;;;;;;5.80;1.80;;;11.80;99.90;;;;;;5052107;28;21203;-45
2022/12/29 12:24:18;;;;;;;4.10;1.67;;;11.80;99.90;;;;;;5051857;28;20175;-45
2022/12/29 12:26:55;;;;;;;5.03;1.50;;;11.80;99.90;;;;;;5051829;28;20162;-44
2022/12/29 12:29:36;;;;;;;5.32;1.35;;;11.80;99.90;;;;;;5052222;28;20239;-44
2022/12/29 12:32:11;;;;;;;4.55;1.38;;;11.80;99.90;;;;;;5051754;28;20173;-44
2022/12/29 12:34:41;;;;;;;4.15;1.58;;;11.90;99.90;;;;;;5051686;28;20241;-44
2022/12/29 12:37:32;;;;;;;3.95;1.65;;;11.90;99.90;;;;;;5051590;28;20190;-44
2022/12/29 12:40:26;;;;;;;3.92;1.50;;;12.10;99.90;;;;;;5051464;28;20167;-45
2022/12/29 12:43:14;;;;;;;3.35;1.30;;;12.10;99.90;;;;;;5051100;28;20212;-44
2022/12/29 12:45:55;;;;;;;4.15;1.90;;;12.00;99.90;;;;;;5051734;28;20193;-44
2022/12/29 12:48:45;;;;;;;5.07;1.30;;;11.90;99.90;;;;;;5052063;28;20563;-44
2022/12/29 12:51:14;;;;;;;1.92;1.70;;;11.80;99.90;;;;;;5051507;28;20659;-44
2022/12/29 12:54:34;;;;;;;8.75;1.23;;;11.80;99.90;;;;;;5051423;28;20634;-45
2022/12/29 12:57:21;;;;;;;1.20;0.95;;;11.80;99.90;;;;;;5042420;28;20225;-44
2022/12/29 13:00:06;;;;;;;2.72;1.42;;;11.80;99.90;;;;;;5051661;28;20582;-45
2022/12/29 13:02:59;;;;;;;3.30;1.00;;;11.80;99.90;;;;;;5051076;28;20225;-45
2022/12/29 13:05:52;;;;;;;2.58;1.25;;;11.80;99.90;;;;;;5051430;28;20165;-44
2022/12/29 13:08:27;;;;;;;4.63;1.20;;;11.80;99.90;;;;;;5055204;28;20177;-44
2022/12/29 13:11:29;;;;;;;1.77;0.93;;;11.70;99.90;;;;;;5055266;28;20275;-44
2022/12/29 13:14:18;;;;;;;1.92;0.98;;;11.70;99.90;;;;;;5055611;28;20169;-45
2022/12/29 13:17:12;;;;;;;4.28;1.17;;;11.70;99.90;;;;;;5055386;28;20646;-45
2022/12/29 13:19:41;;;;;;;5.32;1.90;;;11.60;99.90;;;;;;5055347;28;20171;-45
2022/12/29 13:22:29;;;;;;;5.03;1.17;;;11.60;99.90;;;;;;5055176;28;20685;-45
2022/12/29 13:25:17;;;;;;;5.32;2.20;;;11.60;99.90;;;;;;5054954;28;20253;-45
2022/12/29 13:27:53;;;;;;;4.32;2.17;;;11.60;99.90;;;;;;5055209;28;20228;-45
2022/12/29 13:30:36;;;;;;;9.43;1.98;;;11.60;99.90;;;;;;5055459;28;20174;-45
2022/12/29 13:33:24;;;;;;;4.93;1.83;;;11.60;99.90;;;;;;5054929;28;20159;-45
2022/12/29 13:36:26;;;;;;;3.10;1.08;;;11.50;99.90;;;;;;5055366;28;20186;-45
2022/12/29 13:39:11;;;;;;;4.05;1.20;;;11.50;99.90;;;;;;5054905;28;20249;-45
2022/12/29 13:41:45;;;;;;;3.05;1.27;;;11.50;99.90;;;;;;5055046;28;20202;-45
2022/12/29 13:44:23;;;;;;;7.35;1.23;;;11.40;99.90;;;;;;5054944;28;21118;-45
2022/12/29 13:46:49;;;;;;;5.45;1.67;;;11.40;99.90;;;;;;5055128;28;20625;-45
2022/12/29 13:49:21;;;;;;;3.03;0.98;;;11.40;99.90;;;;;;5053239;28;20175;-45
2022/12/29 13:51:51;;;;;;;2.33;1.23;;;11.30;99.90;;;;;;5055068;28;20170;-45